Time;durP1;ratioP1;P1;durP2;ratioP2;P2;SDS_P1;SDS_P2;PMS_P1;PMS_P2;Temp;Humidity;BMP_temperature;BMP_pressure;BME280_temperature;BME280_humidity;BME280_pressure;Samples;Min_cycle;Max_cycle;Signal;HPM_P1;HPM_P2
2023/04/20 00:02:02;;;;;;;5.73;5.43;;;7.10;99.90;;;;;;5030766;28;20665;-65
2023/04/20 00:04:28;;;;;;;5.63;5.30;;;7.10;99.90;;;;;;5031045;28;20174;-64
2023/04/20 00:06:55;;;;;;;5.73;5.43;;;7.10;99.90;;;;;;5030594;28;20291;-64
2023/04/20 00:09:21;;;;;;;5.40;5.10;;;7.10;99.90;;;;;;5030607;28;20195;-65
2023/04/20 00:11:47;;;;;;;5.90;5.50;;;7.10;99.90;;;;;;5030798;28;20190;-64
2023/04/20 00:14:13;;;;;;;5.90;5.40;;;7.10;99.90;;;;;;5031047;28;20641;-64
2023/04/20 00:16:39;;;;;;;8.37;6.27;;;7.10;99.90;;;;;;5030888;28;20311;-65
2023/04/20 00:19:06;;;;;;;10.43;6.17;;;7.20;99.90;;;;;;5030728;28;20196;-63
2023/04/20 00:21:31;;;;;;;7.53;5.60;;;7.20;99.90;;;;;;5030547;28;20225;-64
2023/04/20 00:23:57;;;;;;;6.47;6.07;;;7.20;99.90;;;;;;5029418;28;20188;-67
2023/04/20 00:26:22;;;;;;;8.57;6.17;;;7.30;99.90;;;;;;5030638;28;20554;-64
2023/04/20 00:28:50;;;;;;;5.90;5.50;;;7.30;99.90;;;;;;5030609;28;20246;-64
2023/04/20 00:31:16;;;;;;;6.30;5.90;;;7.30;99.90;;;;;;5030272;28;20183;-65
2023/04/20 00:33:41;;;;;;;6.43;6.07;;;7.40;99.90;;;;;;5030790;28;20234;-66
2023/04/20 00:36:07;;;;;;;6.20;5.70;;;7.40;99.90;;;;;;5032622;28;20207;-63
2023/04/20 00:38:33;;;;;;;5.60;5.20;;;7.40;99.90;;;;;;5034086;28;20652;-65
2023/04/20 00:40:59;;;;;;;8.30;5.80;;;7.40;99.90;;;;;;5033713;28;20271;-64
2023/04/20 00:43:25;;;;;;;5.90;5.50;;;7.50;99.90;;;;;;5034303;28;20179;-65
2023/04/20 00:45:53;;;;;;;5.70;5.40;;;7.50;99.90;;;;;;5034124;28;20175;-64
2023/04/20 00:48:19;;;;;;;5.80;5.40;;;7.50;99.40;;;;;;5034007;28;20550;-67
2023/04/20 00:50:45;;;;;;;5.70;5.40;;;7.50;99.50;;;;;;5033867;28;20254;-63
2023/04/20 00:53:12;;;;;;;6.33;5.73;;;7.60;99.60;;;;;;5033847;28;20199;-64
2023/04/20 00:55:38;;;;;;;5.77;5.47;;;7.60;99.90;;;;;;5033658;28;20168;-63
2023/04/20 00:58:05;;;;;;;5.93;5.53;;;7.60;99.90;;;;;;5033938;28;20195;-65
2023/04/20 01:00:31;;;;;;;6.07;5.67;;;7.60;98.90;;;;;;5033557;28;20184;-65
2023/04/20 01:02:57;;;;;;;6.33;5.83;;;7.60;99.30;;;;;;5033952;28;20179;-65
2023/04/20 01:05:23;;;;;;;6.83;6.10;;;7.60;99.70;;;;;;5033577;28;20648;-64
2023/04/20 01:07:49;;;;;;;6.30;5.80;;;7.60;98.70;;;;;;5033638;28;20196;-65
2023/04/20 01:10:15;;;;;;;7.83;5.90;;;7.60;98.90;;;;;;5033281;28;20180;-64
2023/04/20 01:12:41;;;;;;;5.93;5.63;;;7.70;98.30;;;;;;5034002;28;20175;-64
2023/04/20 01:15:07;;;;;;;5.90;5.50;;;7.70;98.70;;;;;;5033988;28;20171;-64
2023/04/20 01:17:36;;;;;;;6.30;5.87;;;7.70;99.50;;;;;;5033200;28;20211;-64
2023/04/20 01:20:03;;;;;;;6.37;5.80;;;7.80;98.50;;;;;;5033513;28;20171;-64
2023/04/20 01:22:28;;;;;;;5.97;5.57;;;7.80;98.60;;;;;;5033668;28;20629;-65
2023/04/20 01:24:54;;;;;;;5.63;5.17;;;7.90;99.00;;;;;;5033449;28;20221;-64
2023/04/20 01:27:20;;;;;;;6.07;5.57;;;7.80;99.20;;;;;;5033032;28;20176;-65
2023/04/20 01:29:45;;;;;;;5.37;5.03;;;7.80;99.10;;;;;;5033120;28;20553;-64
2023/04/20 01:32:11;;;;;;;5.67;5.27;;;7.70;99.90;;;;;;5033156;28;20186;-64
2023/04/20 01:34:38;;;;;;;5.60;5.20;;;7.60;99.90;;;;;;5033440;28;20187;-64
2023/04/20 01:37:07;;;;;;;5.87;5.47;;;7.50;99.90;;;;;;5032986;28;20579;-65
2023/04/20 01:39:37;;;;;;;6.07;5.67;;;7.40;99.90;;;;;;5032988;28;20163;-65
2023/04/20 01:42:04;;;;;;;8.00;5.67;;;7.40;99.90;;;;;;5033006;28;20207;-64
2023/04/20 01:44:30;;;;;;;6.40;5.83;;;7.30;99.90;;;;;;5033051;28;20171;-65
2023/04/20 01:46:55;;;;;;;6.07;5.57;;;7.30;99.90;;;;;;5032978;28;20632;-63
2023/04/20 01:49:21;;;;;;;6.70;6.10;;;7.30;99.90;;;;;;5032634;28;20345;-65
2023/04/20 01:51:47;;;;;;;6.17;5.67;;;7.30;99.90;;;;;;5032964;28;20171;-63
2023/04/20 01:54:12;;;;;;;5.53;5.23;;;7.30;99.90;;;;;;5030897;28;20210;-65
2023/04/20 01:56:38;;;;;;;10.20;5.77;;;7.40;99.90;;;;;;5032982;28;20214;-64
2023/04/20 01:59:03;;;;;;;5.60;5.20;;;7.40;99.90;;;;;;5032471;28;20282;-64
2023/04/20 02:01:29;;;;;;;8.13;6.00;;;7.40;99.90;;;;;;5032545;28;20178;-65
2023/04/20 02:03:54;;;;;;;6.07;5.67;;;7.50;99.90;;;;;;5032295;28;20215;-63
2023/04/20 02:06:20;;;;;;;7.23;5.50;;;7.60;99.50;;;;;;5032812;28;20536;-65
2023/04/20 02:08:46;;;;;;;6.00;5.70;;;7.70;99.90;;;;;;5032225;28;20226;-64
2023/04/20 02:11:12;;;;;;;6.23;5.83;;;7.70;99.90;;;;;;5032197;28;20225;-65
2023/04/20 02:13:38;;;;;;;6.23;5.80;;;7.80;99.10;;;;;;5032477;28;20653;-72
2023/04/20 02:16:04;;;;;;;5.87;5.50;;;7.80;98.80;;;;;;5032805;28;20233;-67
2023/04/20 02:18:31;;;;;;;5.93;5.53;;;7.80;99.40;;;;;;5034378;28;20588;-71
2023/04/20 02:20:57;;;;;;;5.93;5.43;;;7.90;99.00;;;;;;5032204;28;20167;-69
2023/04/20 02:23:23;;;;;;;6.00;5.43;;;7.90;99.00;;;;;;5033966;28;20182;-67
2023/04/20 02:25:49;;;;;;;5.50;5.10;;;7.90;97.70;;;;;;5033763;28;20175;-71
2023/04/20 02:28:14;;;;;;;5.37;5.07;;;7.90;98.60;;;;;;5034037;28;20210;-71
2023/04/20 02:30:40;;;;;;;6.03;5.53;;;7.90;97.80;;;;;;5031959;28;20180;-70
2023/04/20 02:33:06;;;;;;;6.13;5.73;;;7.80;96.80;;;;;;5034031;28;20175;-70
2023/04/20 02:35:32;;;;;;;5.43;5.13;;;7.80;98.20;;;;;;5033817;28;20207;-71
2023/04/20 02:37:57;;;;;;;5.83;5.43;;;7.90;99.40;;;;;;5033572;28;20199;-70
2023/04/20 02:40:23;;;;;;;7.93;5.30;;;7.80;97.70;;;;;;5033098;28;20183;-72
2023/04/20 02:42:48;;;;;;;5.80;5.50;;;7.80;96.40;;;;;;5033758;28;20534;-72
2023/04/20 02:45:14;;;;;;;6.00;5.60;;;7.80;97.20;;;;;;5033578;28;20214;-70
2023/04/20 02:47:40;;;;;;;5.40;5.10;;;7.70;97.50;;;;;;5032526;28;20195;-68
2023/04/20 02:50:08;;;;;;;5.43;5.13;;;7.70;98.80;;;;;;5032683;28;20589;-68
2023/04/20 02:52:33;;;;;;;5.90;5.33;;;7.70;98.40;;;;;;5032748;28;20172;-69
2023/04/20 02:54:59;;;;;;;6.50;6.00;;;7.70;97.50;;;;;;5033228;28;20266;-66
2023/04/20 02:57:25;;;;;;;6.10;5.60;;;7.70;97.30;;;;;;5033352;28;20290;-69
2023/04/20 02:59:50;;;;;;;5.53;5.00;;;7.70;97.90;;;;;;5032902;28;20224;-71
2023/04/20 03:02:16;;;;;;;5.67;5.37;;;7.70;96.70;;;;;;5033250;28;20167;-70
2023/04/20 03:04:42;;;;;;;6.00;5.60;;;7.70;97.30;;;;;;5033319;28;20542;-70
2023/04/20 03:07:08;;;;;;;5.60;5.20;;;7.70;96.00;;;;;;5032926;28;20183;-72
2023/04/20 03:09:37;;;;;;;5.73;5.43;;;7.70;95.70;;;;;;5032655;28;20182;-70
2023/04/20 03:12:05;;;;;;;5.53;5.23;;;7.60;95.50;;;;;;5032654;28;20183;-70
2023/04/20 03:14:31;;;;;;;6.40;5.93;;;7.60;96.50;;;;;;5032151;28;20714;-69
2023/04/20 03:16:57;;;;;;;5.93;5.30;;;7.60;97.20;;;;;;5032523;28;20199;-72
2023/04/20 03:19:24;;;;;;;5.87;5.50;;;7.60;96.30;;;;;;5031012;28;20223;-69
2023/04/20 03:21:49;;;;;;;6.10;5.60;;;7.60;97.40;;;;;;5033060;28;20171;-68
2023/04/20 03:24:16;;;;;;;5.50;5.10;;;7.60;98.10;;;;;;5033212;28;20218;-70
2023/04/20 03:26:42;;;;;;;6.10;5.70;;;7.60;98.20;;;;;;5032624;28;20175;-72
2023/04/20 03:29:08;;;;;;;5.80;5.30;;;7.60;98.00;;;;;;5031774;28;20233;-70
2023/04/20 03:31:33;;;;;;;6.57;5.93;;;7.60;99.40;;;;;;5031426;28;20210;-69
2023/04/20 03:33:59;;;;;;;5.67;5.37;;;7.60;99.30;;;;;;5032849;28;20633;-69
2023/04/20 03:36:27;;;;;;;5.63;5.33;;;7.60;98.50;;;;;;5032670;28;20242;-66
2023/04/20 03:38:52;;;;;;;6.47;5.63;;;7.60;96.60;;;;;;5032416;28;20190;-69
2023/04/20 03:41:18;;;;;;;5.70;5.40;;;7.60;96.50;;;;;;5032229;28;20187;-69
2023/04/20 03:43:43;;;;;;;5.70;5.40;;;7.60;96.60;;;;;;5032985;28;20179;-73
2023/04/20 03:46:09;;;;;;;5.93;5.53;;;7.60;96.00;;;;;;5032700;28;20179;-73
2023/04/20 03:48:35;;;;;;;5.40;5.10;;;7.70;96.80;;;;;;5032739;28;20199;-68
2023/04/20 03:51:00;;;;;;;5.77;5.37;;;7.70;96.20;;;;;;5030956;28;20180;-68
2023/04/20 03:53:27;;;;;;;6.10;5.60;;;7.80;97.80;;;;;;5031571;28;20191;-69
2023/04/20 03:55:53;;;;;;;5.33;5.00;;;7.80;97.40;;;;;;5032315;28;20641;-70
2023/04/20 03:58:19;;;;;;;7.27;5.57;;;7.80;97.10;;;;;;5032616;28;20198;-70
2023/04/20 04:00:45;;;;;;;5.60;5.20;;;7.80;98.80;;;;;;5030908;28;20183;-66
2023/04/20 04:03:11;;;;;;;5.50;5.20;;;7.90;98.60;;;;;;5032489;28;20179;-67
2023/04/20 04:05:37;;;;;;;5.60;5.20;;;7.80;98.30;;;;;;5032183;28;20171;-70
2023/04/20 04:08:02;;;;;;;5.83;5.53;;;7.80;98.30;;;;;;5032165;28;20204;-69
2023/04/20 04:10:28;;;;;;;5.50;5.20;;;7.80;97.90;;;;;;5034717;28;20185;-66
2023/04/20 04:12:53;;;;;;;7.23;5.93;;;7.90;99.90;;;;;;5036538;28;20175;-71
2023/04/20 04:15:19;;;;;;;10.60;6.40;;;7.90;99.70;;;;;;5035994;28;20184;-67
2023/04/20 04:17:45;;;;;;;5.50;5.00;;;7.90;99.90;;;;;;5036052;28;20681;-69
2023/04/20 04:20:11;;;;;;;5.07;4.70;;;7.90;99.90;;;;;;5035697;28;20175;-69
2023/04/20 04:22:37;;;;;;;5.63;5.20;;;8.00;99.90;;;;;;5035970;28;20543;-68
2023/04/20 04:25:03;;;;;;;5.60;5.13;;;7.90;99.90;;;;;;5035891;28;20175;-70
2023/04/20 04:27:33;;;;;;;6.07;5.67;;;7.90;99.90;;;;;;5035698;28;20192;-69
2023/04/20 04:30:03;;;;;;;6.47;5.50;;;7.80;99.90;;;;;;5035426;28;20184;-68
2023/04/20 04:32:29;;;;;;;5.97;5.60;;;7.70;99.90;;;;;;5036320;28;20306;-67
2023/04/20 04:34:55;;;;;;;5.73;5.33;;;7.70;99.90;;;;;;5035632;28;20237;-66
2023/04/20 04:37:20;;;;;;;5.40;5.13;;;7.70;99.90;;;;;;5035672;28;20203;-70
2023/04/20 04:39:46;;;;;;;6.20;5.80;;;7.60;99.90;;;;;;5035697;28;20664;-66
2023/04/20 04:42:12;;;;;;;5.93;5.50;;;7.60;99.90;;;;;;5036236;28;20176;-68
2023/04/20 04:44:38;;;;;;;6.13;5.63;;;7.60;99.90;;;;;;5035768;28;20178;-68
2023/04/20 04:47:04;;;;;;;6.53;5.97;;;7.60;99.90;;;;;;5036229;28;20176;-68
2023/04/20 04:49:31;;;;;;;6.37;5.97;;;7.50;99.90;;;;;;5035640;28;20201;-70
2023/04/20 04:51:56;;;;;;;5.87;5.47;;;7.50;99.90;;;;;;5036031;28;20290;-70
2023/04/20 04:54:22;;;;;;;6.00;5.60;;;7.50;99.90;;;;;;5035718;28;20222;-68
2023/04/20 04:56:47;;;;;;;8.30;5.87;;;7.50;99.90;;;;;;5035482;28;20227;-68
2023/04/20 04:59:13;;;;;;;6.27;5.90;;;7.50;99.90;;;;;;5035331;28;20209;-70
2023/04/20 05:01:39;;;;;;;6.33;5.83;;;7.50;99.90;;;;;;5017711;28;20562;-67
2023/04/20 05:04:04;;;;;;;7.30;6.70;;;7.60;99.90;;;;;;5035398;28;20240;-67
2023/04/20 05:06:31;;;;;;;7.93;6.70;;;7.50;99.90;;;;;;5035431;28;20579;-67
2023/04/20 05:08:57;;;;;;;5.83;5.43;;;7.60;99.90;;;;;;5035410;28;20210;-70
2023/04/20 05:11:22;;;;;;;9.33;5.87;;;7.60;99.90;;;;;;5034907;28;20262;-64
2023/04/20 05:13:48;;;;;;;6.10;5.70;;;7.60;99.90;;;;;;5033417;28;20191;-64
2023/04/20 05:16:14;;;;;;;6.97;6.37;;;7.60;99.90;;;;;;5033739;28;20203;-64
2023/04/20 05:18:39;;;;;;;7.03;6.40;;;7.60;99.90;;;;;;5033281;28;20287;-64
2023/04/20 05:21:05;;;;;;;6.33;5.93;;;7.60;99.90;;;;;;5032572;28;20540;-64
2023/04/20 05:23:31;;;;;;;5.93;5.53;;;7.60;99.90;;;;;;5033148;28;20176;-64
2023/04/20 05:25:56;;;;;;;6.57;5.97;;;7.60;99.90;;;;;;5033424;28;20178;-64
2023/04/20 05:28:22;;;;;;;5.90;5.53;;;7.60;99.90;;;;;;5033125;28;20208;-64
2023/04/20 05:30:47;;;;;;;7.27;6.80;;;7.50;99.90;;;;;;5032947;28;20183;-65
2023/04/20 05:33:13;;;;;;;6.80;6.20;;;7.20;99.90;;;;;;5033260;28;20230;-64
2023/04/20 05:35:39;;;;;;;6.07;5.60;;;7.00;99.90;;;;;;5033211;28;20176;-64
2023/04/20 05:38:05;;;;;;;6.50;5.90;;;6.70;99.90;;;;;;5032991;28;20199;-65
2023/04/20 05:40:34;;;;;;;6.50;6.10;;;6.60;99.90;;;;;;5013248;28;20179;-65
2023/04/20 05:43:00;;;;;;;9.13;6.33;;;6.50;99.90;;;;;;5031122;28;20252;-65
2023/04/20 05:45:26;;;;;;;7.90;7.20;;;6.50;99.90;;;;;;5032730;28;20337;-65
2023/04/20 05:47:55;;;;;;;7.00;6.30;;;6.40;99.90;;;;;;5032720;28;20206;-65
2023/04/20 05:50:25;;;;;;;7.30;6.83;;;6.40;99.90;;;;;;5032834;28;20175;-65
2023/04/20 05:52:51;;;;;;;7.80;7.00;;;6.50;99.90;;;;;;5031853;28;20295;-65
2023/04/20 05:55:18;;;;;;;7.20;6.70;;;6.60;99.90;;;;;;5033046;28;20206;-65
2023/04/20 05:57:44;;;;;;;7.67;6.83;;;6.60;99.90;;;;;;5032398;28;20222;-65
2023/04/20 06:00:11;;;;;;;7.27;6.70;;;6.70;99.90;;;;;;5032571;28;20175;-65
2023/04/20 06:02:37;;;;;;;8.97;7.17;;;6.70;99.90;;;;;;5032408;28;20378;-65
2023/04/20 06:05:03;;;;;;;7.80;7.00;;;6.70;99.90;;;;;;5032770;28;20164;-65
2023/04/20 06:07:29;;;;;;;7.67;6.73;;;6.80;99.90;;;;;;5032326;28;20214;-65
2023/04/20 06:09:54;;;;;;;8.10;6.93;;;6.80;99.90;;;;;;5032281;28;20191;-65
2023/04/20 06:12:20;;;;;;;8.00;7.23;;;6.90;99.90;;;;;;5032395;28;20249;-65
2023/04/20 06:14:46;;;;;;;8.10;7.53;;;7.00;99.90;;;;;;5032472;28;20175;-65
2023/04/20 06:17:11;;;;;;;7.90;7.30;;;7.10;99.90;;;;;;5031455;28;20584;-65
2023/04/20 06:19:37;;;;;;;8.30;7.60;;;7.10;99.90;;;;;;5020917;28;20179;-65
2023/04/20 06:22:07;;;;;;;8.33;7.50;;;7.20;99.90;;;;;;5032268;28;20183;-64
2023/04/20 06:24:33;;;;;;;8.73;8.03;;;7.10;99.90;;;;;;5032313;28;20660;-65
2023/04/20 06:27:00;;;;;;;8.00;7.43;;;7.10;99.90;;;;;;5032117;28;20179;-65
2023/04/20 06:29:26;;;;;;;8.07;7.27;;;7.00;99.90;;;;;;5031787;28;20359;-65
2023/04/20 06:31:51;;;;;;;8.67;8.17;;;7.00;99.90;;;;;;5031852;28;20261;-64
2023/04/20 06:34:17;;;;;;;8.20;7.57;;;7.10;99.90;;;;;;5030123;28;20192;-64
2023/04/20 06:36:42;;;;;;;8.73;8.13;;;7.10;99.90;;;;;;5031544;28;20203;-65
2023/04/20 06:39:10;;;;;;;8.20;7.50;;;7.20;99.90;;;;;;5031954;28;20227;-65
2023/04/20 06:41:36;;;;;;;9.70;8.70;;;7.20;99.90;;;;;;5031625;28;20219;-64
2023/04/20 06:44:02;;;;;;;8.00;7.40;;;7.20;99.90;;;;;;5030646;28;20176;-65
2023/04/20 06:46:28;;;;;;;7.83;7.33;;;7.20;99.90;;;;;;5031656;28;20201;-64
2023/04/20 06:48:53;;;;;;;10.87;7.27;;;7.10;99.90;;;;;;5031595;28;20198;-64
2023/04/20 06:51:19;;;;;;;9.10;8.23;;;7.10;99.90;;;;;;5031209;28;20526;-64
2023/04/20 06:53:44;;;;;;;8.57;7.87;;;7.00;99.90;;;;;;5031337;28;20262;-65
2023/04/20 06:56:11;;;;;;;8.47;7.80;;;7.00;99.90;;;;;;5031400;28;20191;-65
2023/04/20 06:58:36;;;;;;;9.13;8.33;;;7.00;99.90;;;;;;5033399;28;20752;-64
2023/04/20 07:01:02;;;;;;;8.20;7.63;;;7.00;99.90;;;;;;5031182;28;20254;-65
2023/04/20 07:03:27;;;;;;;7.83;7.23;;;7.00;99.90;;;;;;5030448;28;20202;-65
2023/04/20 07:05:53;;;;;;;7.27;6.77;;;6.90;99.90;;;;;;5031339;28;20180;-65
2023/04/20 07:08:19;;;;;;;7.97;7.33;;;6.90;99.90;;;;;;5031309;28;20222;-65
2023/04/20 07:10:44;;;;;;;8.33;7.00;;;6.80;99.90;;;;;;5031145;28;20172;-65
2023/04/20 07:13:10;;;;;;;7.40;6.90;;;6.70;99.90;;;;;;5031296;28;20629;-66
2023/04/20 07:15:36;;;;;;;6.97;6.57;;;6.60;99.90;;;;;;5031052;28;20182;-65
2023/04/20 07:18:01;;;;;;;7.90;7.20;;;6.60;99.90;;;;;;5031455;28;20207;-66
2023/04/20 07:20:27;;;;;;;10.10;7.23;;;6.60;99.90;;;;;;5029620;28;20198;-65
2023/04/20 07:22:53;;;;;;;7.97;7.37;;;6.60;99.90;;;;;;5031148;28;20168;-65
2023/04/20 07:25:18;;;;;;;7.33;6.73;;;6.70;99.90;;;;;;5030996;28;20184;-65
2023/04/20 07:27:44;;;;;;;8.07;7.47;;;6.80;99.90;;;;;;5030813;28;20630;-66
2023/04/20 07:30:10;;;;;;;7.07;6.57;;;6.90;99.90;;;;;;5029455;28;20191;-66
2023/04/20 07:32:37;;;;;;;6.90;6.40;;;6.90;99.90;;;;;;5031246;28;20541;-66
2023/04/20 07:35:03;;;;;;;7.00;6.40;;;6.90;99.90;;;;;;5030523;28;20187;-65
2023/04/20 07:37:30;;;;;;;7.10;6.70;;;7.00;99.90;;;;;;5031008;28;20290;-66
2023/04/20 07:39:56;;;;;;;6.83;6.53;;;7.10;99.90;;;;;;5030541;28;20186;-66
2023/04/20 07:42:21;;;;;;;8.60;7.90;;;7.20;99.90;;;;;;5030976;28;20179;-65
2023/04/20 07:44:47;;;;;;;7.10;6.70;;;7.30;99.90;;;;;;5032454;28;20664;-65
2023/04/20 07:47:13;;;;;;;7.90;7.50;;;7.30;99.90;;;;;;5035209;28;20186;-65
2023/04/20 07:49:40;;;;;;;7.33;6.93;;;7.30;99.90;;;;;;5034681;28;20183;-66
2023/04/20 07:52:06;;;;;;;7.70;7.20;;;7.30;99.90;;;;;;5035201;28;20179;-65
2023/04/20 07:54:32;;;;;;;7.13;6.73;;;7.40;99.90;;;;;;5034740;28;20191;-65
2023/04/20 07:56:58;;;;;;;8.20;7.60;;;7.40;99.90;;;;;;5032826;28;20215;-66
2023/04/20 07:59:24;;;;;;;7.67;7.20;;;7.30;99.90;;;;;;5034552;28;20235;-65
2023/04/20 08:01:49;;;;;;;7.50;7.07;;;7.30;99.90;;;;;;5034759;28;20637;-65
2023/04/20 08:04:16;;;;;;;7.33;6.83;;;7.40;99.90;;;;;;5034649;28;20187;-65
2023/04/20 08:06:42;;;;;;;6.97;6.57;;;7.40;99.90;;;;;;5033287;28;20282;-65
2023/04/20 08:09:07;;;;;;;7.30;6.73;;;7.50;99.90;;;;;;5034597;28;20333;-66
2023/04/20 08:11:33;;;;;;;7.30;6.70;;;7.50;99.90;;;;;;5034212;28;20543;-66
2023/04/20 08:13:59;;;;;;;7.53;7.13;;;7.60;99.90;;;;;;5033418;28;20187;-66
2023/04/20 08:16:24;;;;;;;7.97;7.40;;;7.70;99.90;;;;;;5034480;28;20260;-65
2023/04/20 08:18:50;;;;;;;7.33;6.93;;;7.70;99.90;;;;;;5033220;28;20199;-65
2023/04/20 08:21:16;;;;;;;7.27;6.87;;;7.70;99.90;;;;;;5033159;28;20619;-65
2023/04/20 08:23:41;;;;;;;7.40;7.00;;;7.80;99.90;;;;;;5032861;28;20207;-65
2023/04/20 08:26:07;;;;;;;8.93;8.40;;;7.90;99.90;;;;;;5034610;28;20215;-65
2023/04/20 08:28:33;;;;;;;7.33;6.83;;;8.10;99.90;;;;;;5034168;28;20214;-65
2023/04/20 08:30:58;;;;;;;6.57;6.20;;;8.20;99.90;;;;;;5032643;28;20233;-65
2023/04/20 08:33:24;;;;;;;48.17;45.40;;;8.40;99.90;;;;;;5034328;28;20187;-65
2023/04/20 08:35:53;;;;;;;7.30;6.77;;;8.50;99.90;;;;;;5029040;28;20270;-67
2023/04/20 08:38:20;;;;;;;6.77;6.27;;;8.60;99.90;;;;;;5020504;28;20219;-66
2023/04/20 08:40:45;;;;;;;7.40;6.93;;;8.60;99.90;;;;;;5033789;28;20232;-66
2023/04/20 08:43:11;;;;;;;7.37;6.87;;;8.60;99.90;;;;;;5034203;28;20262;-67
2023/04/20 08:45:38;;;;;;;6.60;6.20;;;8.50;99.90;;;;;;5034253;28;20545;-67
2023/04/20 08:48:07;;;;;;;6.17;5.87;;;8.40;99.90;;;;;;5033254;28;20289;-65
2023/04/20 08:50:33;;;;;;;6.73;6.23;;;8.20;99.90;;;;;;5032831;28;20186;-66
2023/04/20 08:52:59;;;;;;;6.37;5.97;;;8.20;99.90;;;;;;5033947;28;20229;-66
2023/04/20 08:55:25;;;;;;;5.90;5.60;;;8.20;99.90;;;;;;5032199;28;20287;-66
2023/04/20 08:57:51;;;;;;;6.90;6.40;;;8.30;99.90;;;;;;5033204;28;20297;-65
2023/04/20 09:00:17;;;;;;;6.13;5.73;;;8.30;99.90;;;;;;5033901;28;20634;-65
2023/04/20 09:02:53;;;;;;;6.83;6.37;;;8.30;99.90;;;;;;5034016;28;20251;-65
2023/04/20 09:05:30;;;;;;;7.10;6.70;;;8.30;99.90;;;;;;5031826;28;20179;-65
2023/04/20 09:08:00;;;;;;;7.13;6.67;;;8.30;99.90;;;;;;5032488;28;20203;-65
2023/04/20 09:10:37;;;;;;;7.30;6.90;;;8.30;99.90;;;;;;5033454;28;20555;-65
2023/04/20 09:13:02;;;;;;;6.00;5.70;;;8.40;99.90;;;;;;5033761;28;20270;-65
2023/04/20 09:15:30;;;;;;;6.37;5.97;;;8.40;99.90;;;;;;5033837;28;20594;-65
2023/04/20 09:17:56;;;;;;;6.30;5.90;;;8.40;99.90;;;;;;5033284;28;20218;-65
2023/04/20 09:20:32;;;;;;;7.00;6.60;;;8.40;99.90;;;;;;5033830;28;20225;-65
2023/04/20 09:23:10;;;;;;;6.00;5.57;;;8.50;99.90;;;;;;5033572;28;20180;-65
2023/04/20 09:25:36;;;;;;;6.67;6.17;;;8.70;99.90;;;;;;5033331;28;20187;-64
2023/04/20 09:28:01;;;;;;;5.77;5.47;;;8.90;99.90;;;;;;5032581;28;20215;-65
2023/04/20 09:30:40;;;;;;;5.97;5.60;;;9.10;99.90;;;;;;5033428;28;20576;-65
2023/04/20 09:33:07;;;;;;;6.53;6.00;;;9.50;99.90;;;;;;5033718;28;20254;-65
2023/04/20 09:35:33;;;;;;;6.13;5.67;;;9.90;99.90;;;;;;5031059;28;20186;-65
2023/04/20 09:37:59;;;;;;;5.63;5.23;;;10.50;99.90;;;;;;5032981;28;20310;-65
2023/04/20 09:40:26;;;;;;;5.43;5.00;;;11.10;99.90;;;;;;5032883;28;20221;-65
2023/04/20 09:42:53;;;;;;;5.17;4.67;;;11.50;99.90;;;;;;5032347;28;20652;-65
2023/04/20 09:45:19;;;;;;;5.73;5.23;;;11.90;99.90;;;;;;5033168;28;20174;-65
2023/04/20 09:47:46;;;;;;;5.57;4.50;;;12.30;99.90;;;;;;5031978;28;20253;-65
2023/04/20 09:50:12;;;;;;;4.20;4.00;;;12.70;99.90;;;;;;5032919;28;20176;-65
2023/04/20 09:52:38;;;;;;;5.40;5.10;;;12.90;99.90;;;;;;5031855;28;20637;-65
2023/04/20 09:55:06;;;;;;;4.83;4.53;;;13.00;99.90;;;;;;5032957;28;20246;-65
2023/04/20 09:57:32;;;;;;;4.63;4.33;;;13.10;99.90;;;;;;5031473;28;20211;-65
2023/04/20 09:59:59;;;;;;;4.87;4.57;;;12.80;99.90;;;;;;5013322;28;20266;-65
2023/04/20 10:02:25;;;;;;;4.93;4.63;;;12.50;99.90;;;;;;5018935;28;20175;-65
2023/04/20 10:04:55;;;;;;;5.00;4.70;;;12.00;99.90;;;;;;5032554;28;20175;-65
2023/04/20 10:07:25;;;;;;;5.40;5.10;;;11.60;99.90;;;;;;5032207;28;20677;-66
2023/04/20 10:10:12;;;;;;;5.47;5.13;;;11.10;99.90;;;;;;5031053;28;20187;-65
2023/04/20 10:12:50;;;;;;;5.57;5.27;;;10.50;99.90;;;;;;5032632;28;20476;-65
2023/04/20 10:15:17;;;;;;;5.43;5.13;;;10.20;99.90;;;;;;5032394;28;20597;-65
2023/04/20 10:17:43;;;;;;;4.77;4.50;;;9.80;99.90;;;;;;5032211;28;20563;-65
2023/04/20 10:20:24;;;;;;;5.50;5.20;;;9.40;99.90;;;;;;5032130;28;20649;-65
2023/04/20 10:22:53;;;;;;;6.77;6.30;;;9.00;99.90;;;;;;5032386;28;20659;-65
2023/04/20 10:25:25;;;;;;;6.07;5.73;;;8.60;99.90;;;;;;5032460;28;20214;-66
2023/04/20 10:28:04;;;;;;;5.20;5.00;;;8.30;99.90;;;;;;5031891;28;20353;-67
2023/04/20 10:30:31;;;;;;;5.60;5.30;;;8.10;99.90;;;;;;5031641;28;20486;-66
2023/04/20 10:33:10;;;;;;;6.13;5.83;;;7.90;99.90;;;;;;5030876;28;20619;-66
2023/04/20 10:35:46;;;;;;;6.43;6.03;;;7.80;97.20;;;;;;5031822;28;20197;-67
2023/04/20 10:38:12;;;;;;;6.10;5.63;;;7.80;99.90;;;;;;5032160;28;20211;-67
2023/04/20 10:40:38;;;;;;;6.10;5.80;;;7.90;99.90;;;;;;5032180;28;20182;-67
2023/04/20 10:43:04;;;;;;;6.80;6.50;;;8.20;99.90;;;;;;5032134;28;20478;-66
2023/04/20 10:45:40;;;;;;;6.90;6.50;;;8.60;99.90;;;;;;5031166;28;20179;-66
2023/04/20 10:48:09;;;;;;;6.03;5.73;;;9.20;99.90;;;;;;5032044;28;20194;-66
2023/04/20 10:50:35;;;;;;;6.20;5.87;;;9.70;99.90;;;;;;5031481;28;20196;-66
2023/04/20 10:53:02;;;;;;;5.93;5.63;;;9.90;99.90;;;;;;5031662;28;20653;-65
2023/04/20 10:55:27;;;;;;;4.97;4.77;;;10.50;99.90;;;;;;5030609;28;20183;-66
2023/04/20 10:57:53;;;;;;;5.17;4.90;;;10.90;99.90;;;;;;5031267;28;20207;-66
2023/04/20 11:00:29;;;;;;;5.20;4.90;;;11.40;99.90;;;;;;5031579;28;20254;-66
2023/04/20 11:02:56;;;;;;;5.07;4.87;;;11.80;99.90;;;;;;5031601;28;20233;-65
2023/04/20 11:05:23;;;;;;;4.30;4.10;;;12.30;99.90;;;;;;5031898;28;20238;-66
2023/04/20 11:07:52;;;;;;;4.77;4.47;;;12.50;99.90;;;;;;5031030;28;20207;-66
2023/04/20 11:10:20;;;;;;;4.73;4.43;;;12.60;99.90;;;;;;5031449;28;20176;-66
2023/04/20 11:12:45;;;;;;;4.70;4.40;;;12.40;99.90;;;;;;5031373;28;20184;-65
2023/04/20 11:15:12;;;;;;;4.20;4.00;;;11.80;99.90;;;;;;5031963;28;20222;-66
2023/04/20 11:17:38;;;;;;;4.10;3.90;;;11.20;99.90;;;;;;5029539;28;20214;-66
2023/04/20 11:20:13;;;;;;;4.40;4.20;;;10.80;99.90;;;;;;5030807;28;20159;-65
2023/04/20 11:22:40;;;;;;;4.60;4.40;;;10.60;99.90;;;;;;5027988;28;20189;-66
2023/04/20 11:25:10;;;;;;;4.90;4.70;;;10.70;99.90;;;;;;5031001;28;20168;-66
2023/04/20 11:27:37;;;;;;;5.03;4.83;;;10.90;99.90;;;;;;5031257;28;20352;-66
2023/04/20 11:30:04;;;;;;;4.60;4.40;;;10.90;99.90;;;;;;5031280;28;20175;-65
2023/04/20 11:32:33;;;;;;;4.97;4.67;;;11.00;99.90;;;;;;5031545;28;20178;-66
2023/04/20 11:35:09;;;;;;;4.83;4.63;;;10.90;99.90;;;;;;5031267;28;20543;-66
2023/04/20 11:37:52;;;;;;;4.73;4.53;;;10.80;99.90;;;;;;5031184;28;20198;-66
2023/04/20 11:40:18;;;;;;;4.80;4.60;;;10.60;99.90;;;;;;5030758;28;20183;-66
2023/04/20 11:42:45;;;;;;;4.53;4.33;;;10.50;99.90;;;;;;5030402;28;20251;-66
2023/04/20 11:45:11;;;;;;;4.80;4.60;;;10.60;99.90;;;;;;5031207;28;20345;-65
2023/04/20 11:47:39;;;;;;;5.80;5.50;;;11.10;99.90;;;;;;5031037;28;20187;-66
2023/04/20 11:50:06;;;;;;;4.60;4.30;;;11.80;99.90;;;;;;5029734;28;20186;-66
2023/04/20 11:52:32;;;;;;;3.90;3.70;;;12.40;99.90;;;;;;5031306;28;20172;-66
2023/04/20 11:54:57;;;;;;;4.13;3.93;;;12.60;99.90;;;;;;5029124;28;20194;-66
2023/04/20 11:57:24;;;;;;;4.27;3.87;;;12.70;99.90;;;;;;5031035;28;20302;-66
2023/04/20 11:59:50;;;;;;;3.90;3.70;;;12.90;99.90;;;;;;5030613;28;20178;-66
2023/04/20 12:02:15;;;;;;;4.07;3.87;;;13.20;99.90;;;;;;5030929;28;20681;-66
2023/04/20 12:04:41;;;;;;;4.10;3.90;;;12.90;99.90;;;;;;5031032;28;20164;-65
2023/04/20 12:07:07;;;;;;;4.00;3.80;;;12.30;99.90;;;;;;5030914;28;20175;-66
2023/04/20 12:09:37;;;;;;;3.83;3.60;;;11.60;99.90;;;;;;5031030;28;20225;-65
2023/04/20 12:12:07;;;;;;;4.47;4.27;;;11.20;99.90;;;;;;5030559;28;20175;-65
2023/04/20 12:14:33;;;;;;;4.10;3.90;;;11.10;99.90;;;;;;5031199;28;20178;-66
2023/04/20 12:17:00;;;;;;;4.20;4.00;;;11.20;99.90;;;;;;5030930;28;20195;-66
2023/04/20 12:19:26;;;;;;;4.23;4.03;;;11.40;99.90;;;;;;5029505;28;20563;-66
2023/04/20 12:21:52;;;;;;;4.33;4.13;;;11.70;99.90;;;;;;5030878;28;20168;-66
2023/04/20 12:24:17;;;;;;;4.10;3.90;;;12.30;99.90;;;;;;5030994;28;20183;-65
2023/04/20 12:26:43;;;;;;;4.33;4.13;;;12.70;99.90;;;;;;5030748;28;20187;-66
2023/04/20 12:29:08;;;;;;;4.47;4.27;;;13.30;99.90;;;;;;5030442;28;20223;-66
2023/04/20 12:31:36;;;;;;;4.53;4.33;;;14.20;99.90;;;;;;5033965;28;20195;-66
2023/04/20 12:34:03;;;;;;;4.93;4.53;;;14.70;98.60;;;;;;5033932;28;20187;-66
2023/04/20 12:36:28;;;;;;;4.00;3.80;;;15.00;99.20;;;;;;5034559;28;20246;-65
2023/04/20 12:38:54;;;;;;;5.10;4.80;;;15.10;97.60;;;;;;5034150;28;20424;-66
2023/04/20 12:41:23;;;;;;;4.67;4.37;;;14.90;96.20;;;;;;5033002;28;20240;-65
2023/04/20 12:43:49;;;;;;;4.83;4.53;;;15.00;97.40;;;;;;5034110;28;20180;-66
2023/04/20 12:46:16;;;;;;;4.60;4.30;;;15.40;94.20;;;;;;5034334;28;20180;-66
2023/04/20 12:48:44;;;;;;;4.50;4.20;;;15.80;94.50;;;;;;5031329;28;20206;-66
2023/04/20 12:51:09;;;;;;;5.30;5.00;;;16.00;93.40;;;;;;5033373;28;20176;-66
2023/04/20 12:53:35;;;;;;;5.00;4.70;;;15.80;93.60;;;;;;5033798;28;20203;-66